Alzada, Montana
Current Conditions -  °F | °C
As of 9:15 AM on Wednesday 22 Oct 2014 (Local Time) from KW43 Reporting Station
Clear Clear  
Wind Chill: 42°   Ceiling: Unl
Heat Index: 46°   Visibility: 10mi
Dew Point: 32°   Wind: 8mph
Humidity: 57%   Direction: 250°WSW
Pressure: 30.05"   Gusts: NA
Location:  45.03°N, 104.42°W
Report Text: KW43 221515Z AUTO 25007KT 220V290 10SM CLR 08/00 A3005 RMK AO2
Loading
Personal Weather Stations






























Interactive Weather Map
Tropical Storm Tracking
New forecast layout! Learn more

10-Day Weather Forecast

Advertisements
Track Severe Weather on mobile